createdAt,value
2023-01-07T00:01:41.518Z,98254.00
2023-01-07T00:04:13.738Z,98254.00
2023-01-07T00:06:43.754Z,98251.56
2023-01-07T00:09:15.852Z,98253.70
2023-01-07T00:11:44.245Z,98256.09
2023-01-07T00:14:14.072Z,98254.75
2023-01-07T00:16:42.822Z,98263.86
2023-01-07T00:19:14.630Z,98265.46
2023-01-07T00:21:42.913Z,98262.75
2023-01-07T00:24:12.042Z,98250.70
2023-01-07T00:26:40.893Z,98248.30
2023-01-07T00:29:09.103Z,98255.83
2023-01-07T00:31:39.810Z,98242.44
2023-01-07T00:34:08.846Z,98242.46
2023-01-07T00:36:43.285Z,98236.09
2023-01-07T00:39:19.376Z,98234.23
2023-01-07T00:42:06.913Z,98234.02
2023-01-07T00:44:37.186Z,98225.45
2023-01-07T00:47:04.886Z,98235.13
2023-01-07T00:49:32.689Z,98242.08
2023-01-07T00:52:00.332Z,98262.16
2023-01-07T00:54:28.182Z,98263.45
2023-01-07T00:56:55.923Z,98262.38
2023-01-07T00:59:23.582Z,98266.95
2023-01-07T01:01:51.984Z,98271.00
2023-01-07T01:04:19.558Z,98266.98
2023-01-07T01:06:47.253Z,98270.72
2023-01-07T01:09:14.965Z,98273.67
2023-01-07T01:11:42.491Z,98269.89
2023-01-07T01:14:11.356Z,98264.84
2023-01-07T01:16:39.202Z,98253.05
2023-01-07T01:19:07.327Z,98258.70
2023-01-07T01:21:34.832Z,98261.10
2023-01-07T01:24:02.307Z,98270.20
2023-01-07T01:26:30.444Z,98258.16
2023-01-07T01:28:58.114Z,98256.55
2023-01-07T01:31:26.732Z,98256.55
2023-01-07T01:33:56.348Z,98269.41
2023-01-07T01:36:24.449Z,98266.17
2023-01-07T01:38:52.931Z,98258.41
2023-01-07T01:41:21.333Z,98252.78
2023-01-07T01:43:51.413Z,98248.77
2023-01-07T01:46:27.095Z,98252.78
2023-01-07T01:49:02.762Z,98247.42
2023-01-07T01:51:35.626Z,98248.77
2023-01-07T01:54:07.610Z,98250.09
2023-01-07T01:56:39.497Z,98243.14
2023-01-07T01:59:12.980Z,98246.08
2023-01-07T02:01:41.306Z,98249.86
2023-01-07T02:04:16.300Z,98243.94
2023-01-07T02:06:51.955Z,98242.06
2023-01-07T02:09:27.991Z,98243.94
2023-01-07T02:12:34.551Z,98234.84
2023-01-07T02:15:40.455Z,98226.51
2023-01-07T02:19:02.681Z,98232.70
2023-01-07T02:22:07.276Z,98240.17
2023-01-07T02:25:11.692Z,98228.92
2023-01-07T02:27:59.487Z,98230.51
2023-01-07T02:30:47.089Z,98230.27
2023-01-07T02:33:39.704Z,98227.33
2023-01-07T02:36:23.856Z,98223.33
2023-01-07T02:39:09.278Z,98226.06
2023-01-07T02:41:54.107Z,98215.36
2023-01-07T02:44:42.992Z,98213.25
2023-01-07T02:47:45.174Z,98214.60
2023-01-07T02:50:13.545Z,98224.24
2023-01-07T02:52:41.203Z,98228.31
2023-01-07T02:55:14.455Z,98231.02
2023-01-07T02:58:05.386Z,98228.89
2023-01-07T03:00:50.937Z,98218.17
2023-01-07T03:04:04.694Z,98223.79
2023-01-07T03:07:12.860Z,98229.67
2023-01-07T03:10:07.282Z,98219.73
2023-01-07T03:12:41.199Z,98217.58
2023-01-07T03:15:20.138Z,98211.94
2023-01-07T03:18:08.349Z,98219.97
2023-01-07T03:20:38.955Z,98213.26
2023-01-07T03:23:10.320Z,98213.25
2023-01-07T03:25:45.118Z,98208.92
2023-01-07T03:28:16.947Z,98200.90
2023-01-07T03:30:47.679Z,98200.07
2023-01-07T03:33:29.586Z,98200.06
2023-01-07T03:36:00.141Z,98200.03
2023-01-07T03:38:29.664Z,98202.98
2023-01-07T03:40:59.264Z,98211.81
2023-01-07T03:43:26.948Z,98207.27
2023-01-07T03:45:57.765Z,98209.94
2023-01-07T03:48:26.048Z,98208.34
2023-01-07T03:50:53.766Z,98202.98
2023-01-07T03:53:21.368Z,98203.78
2023-01-07T03:55:52.489Z,98198.44
2023-01-07T03:58:20.100Z,98199.77
2023-01-07T04:00:47.723Z,98205.66
2023-01-07T04:03:17.071Z,98205.66
2023-01-07T04:05:46.525Z,98212.62
2023-01-07T04:08:14.147Z,98210.77
2023-01-07T04:10:43.322Z,98213.72
2023-01-07T04:13:12.022Z,98202.72
2023-01-07T04:15:42.113Z,98202.72
2023-01-07T04:18:13.335Z,98201.64
2023-01-07T04:20:55.940Z,98197.09
2023-01-07T04:23:38.003Z,98200.56
2023-01-07T04:26:07.960Z,98200.07
2023-01-07T04:28:41.326Z,98197.41
2023-01-07T04:31:16.651Z,98197.42
2023-01-07T04:33:55.301Z,98197.98
2023-01-07T04:36:35.522Z,98191.05
2023-01-07T04:39:11.365Z,98192.92
2023-01-07T04:41:50.355Z,98199.11
2023-01-07T04:44:21.912Z,98194.57
2023-01-07T04:47:02.069Z,98205.33
2023-01-07T04:49:41.330Z,98202.11
2023-01-07T04:52:18.096Z,98196.77
2023-01-07T04:54:53.297Z,98194.08
2023-01-07T04:57:31.306Z,98193.00
2023-01-07T05:00:06.692Z,98201.06
2023-01-07T05:02:41.745Z,98198.35
2023-01-07T05:05:10.931Z,98186.56
2023-01-07T05:07:39.376Z,98188.16
2023-01-07T05:10:08.018Z,98191.37
2023-01-07T05:12:37.250Z,98193.77
2023-01-07T05:15:07.048Z,98193.24
2023-01-07T05:17:35.158Z,98201.00
2023-01-07T05:20:06.073Z,98202.05
2023-01-07T05:22:34.911Z,98199.92
2023-01-07T05:25:03.811Z,98202.05
2023-01-07T05:27:32.246Z,98205.23
2023-01-07T05:30:00.280Z,98207.92
2023-01-07T05:32:28.040Z,98213.28
2023-01-07T05:34:57.224Z,98207.92
2023-01-07T05:37:25.660Z,98217.32
2023-01-07T05:39:53.640Z,98220.80
2023-01-07T05:42:21.432Z,98214.36
2023-01-07T05:44:50.167Z,98214.36
2023-01-07T05:47:17.934Z,98216.00
2023-01-07T05:49:45.359Z,98212.24
2023-01-07T05:52:13.073Z,98207.66
2023-01-07T05:54:41.076Z,98209.28
2023-01-07T05:57:08.765Z,98211.14
2023-01-07T05:59:36.591Z,98219.20
2023-01-07T06:02:04.403Z,98217.59
2023-01-07T06:04:33.652Z,98228.02
2023-01-07T06:07:01.347Z,98216.80
2023-01-07T06:09:30.766Z,98218.64
2023-01-07T06:11:58.566Z,98223.22
2023-01-07T06:14:26.276Z,98224.04
2023-01-07T06:16:53.891Z,98225.37
2023-01-07T06:19:22.458Z,98222.15
2023-01-07T06:21:50.147Z,98218.15
2023-01-07T06:24:17.900Z,98220.03
2023-01-07T06:26:45.440Z,98218.17
2023-01-07T06:29:13.385Z,98223.54
2023-01-07T06:31:41.285Z,98229.98
2023-01-07T06:34:08.820Z,98234.56
2023-01-07T06:36:36.638Z,98239.67
2023-01-07T06:39:04.697Z,98228.42
2023-01-07T06:41:32.503Z,98234.34
2023-01-07T06:44:00.156Z,98236.20
2023-01-07T06:46:28.089Z,98244.80
2023-01-07T06:48:55.907Z,98237.81
2023-01-07T06:51:23.547Z,98239.15
2023-01-07T06:53:51.162Z,98236.20
2023-01-07T06:56:18.945Z,98242.39
2023-01-07T06:58:46.404Z,98241.57
2023-01-07T07:01:14.233Z,98241.57
2023-01-07T07:03:41.966Z,98249.88
2023-01-07T07:06:09.470Z,98253.60
2023-01-07T07:08:37.347Z,98250.92
2023-01-07T07:11:05.097Z,98262.98
2023-01-07T07:13:32.574Z,98252.00
2023-01-07T07:16:00.384Z,98255.48
2023-01-07T07:18:28.041Z,98245.57
2023-01-07T07:20:57.911Z,98249.31
2023-01-07T07:23:25.925Z,98256.28
2023-01-07T07:25:53.450Z,98252.80
2023-01-07T07:28:21.018Z,98254.68
2023-01-07T07:30:48.590Z,98257.12
2023-01-07T07:33:18.100Z,98259.26
2023-01-07T07:35:47.057Z,98260.33
2023-01-07T07:38:17.137Z,98264.91
2023-01-07T07:40:45.762Z,98263.28
2023-01-07T07:43:14.927Z,98263.55
2023-01-07T07:45:43.242Z,98272.41
2023-01-07T07:48:14.216Z,98270.81
2023-01-07T07:50:42.709Z,98267.05
2023-01-07T07:53:10.979Z,98268.93
2023-01-07T07:55:39.451Z,98260.08
2023-01-07T07:58:07.239Z,98268.66
2023-01-07T08:00:35.269Z,98261.16
2023-01-07T08:03:05.497Z,98264.38
2023-01-07T08:05:33.024Z,98265.73
2023-01-07T08:08:00.774Z,98260.64
2023-01-07T08:10:29.406Z,98267.61
2023-01-07T08:12:57.306Z,98269.23
2023-01-07T08:15:25.114Z,98274.59
2023-01-07T08:18:01.492Z,98264.41
2023-01-07T08:20:29.172Z,98269.24
2023-01-07T08:23:01.819Z,98267.62
2023-01-07T08:25:33.245Z,98266.01
2023-01-07T08:28:01.703Z,98268.42
2023-01-07T08:30:30.177Z,98273.27
2023-01-07T08:32:58.524Z,98269.49
2023-01-07T08:35:26.545Z,98268.44
2023-01-07T08:38:07.880Z,98270.33
2023-01-07T08:40:36.903Z,98275.95
2023-01-07T08:43:07.462Z,98277.29
2023-01-07T08:45:35.343Z,98271.94
2023-01-07T08:48:03.530Z,98273.80
2023-01-07T08:50:33.349Z,98278.91
2023-01-07T08:53:01.452Z,98275.70
2023-01-07T08:55:28.971Z,98281.31
2023-01-07T08:57:57.152Z,98284.00
2023-01-07T09:00:25.631Z,98277.02
2023-01-07T09:02:53.235Z,98274.36
2023-01-07T09:05:21.671Z,98277.58
2023-01-07T09:07:53.994Z,98269.52
2023-01-07T09:10:22.136Z,98274.88
2023-01-07T09:12:49.989Z,98268.16
2023-01-07T09:15:20.510Z,98269.24
2023-01-07T09:17:47.960Z,98266.55
2023-01-07T09:20:16.365Z,98261.19
2023-01-07T09:22:44.102Z,98263.61
2023-01-07T09:25:11.853Z,98263.63
2023-01-07T09:27:40.859Z,98260.66
2023-01-07T09:30:09.606Z,98257.72
2023-01-07T09:32:37.427Z,98255.02
2023-01-07T09:35:06.859Z,98248.58
2023-01-07T09:37:34.529Z,98254.20
2023-01-07T09:40:05.214Z,98253.40
2023-01-07T09:45:43.313Z,98248.55
2023-01-07T09:48:25.529Z,98250.69
2023-01-07T09:51:01.153Z,98246.66
2023-01-07T09:53:54.484Z,98246.11
2023-01-07T09:56:29.398Z,98245.27
2023-01-07T09:59:00.235Z,98241.22
2023-01-07T10:01:57.133Z,98237.96
2023-01-07T10:04:42.287Z,98234.73
2023-01-07T10:07:35.507Z,98234.97
2023-01-07T10:10:30.037Z,98234.97
2023-01-07T10:13:22.968Z,98233.08
2023-01-07T10:16:23.648Z,98230.91
2023-01-07T10:19:04.584Z,98226.63
2023-01-07T10:21:43.302Z,98214.81
2023-01-07T10:24:22.363Z,98216.41
2023-01-07T10:26:55.040Z,98210.52
2023-01-07T10:29:31.348Z,98209.20
2023-01-07T10:32:07.514Z,98206.48
2023-01-07T10:34:40.605Z,98207.31
2023-01-07T10:37:16.415Z,98201.39
2023-01-07T10:40:13.704Z,98198.70
2023-01-07T10:43:12.539Z,98196.28
2023-01-07T10:45:51.634Z,98185.81
2023-01-07T10:48:33.567Z,98186.61
2023-01-07T10:51:15.006Z,98182.55
2023-01-07T10:54:22.827Z,98185.27
2023-01-07T10:56:56.715Z,98184.44
2023-01-07T10:59:25.542Z,98181.46
2023-01-07T11:01:57.068Z,98183.34
2023-01-07T11:04:26.093Z,98180.37
2023-01-07T11:07:29.420Z,98171.50
2023-01-07T11:10:01.908Z,98175.03
2023-01-07T11:12:46.584Z,98169.65
2023-01-07T11:15:36.500Z,98173.39
2023-01-07T11:18:15.061Z,98172.30
2023-01-07T11:20:53.407Z,98168.78
2023-01-07T11:23:42.753Z,98166.89
2023-01-07T11:26:30.043Z,98159.62
2023-01-07T11:29:17.560Z,98163.66
2023-01-07T11:31:55.676Z,98159.33
2023-01-07T11:34:34.246Z,98156.56
2023-01-07T11:37:03.599Z,98155.16
2023-01-07T11:39:36.820Z,98145.70
2023-01-07T11:42:36.582Z,98148.05
2023-01-07T11:45:23.792Z,98145.55
2023-01-07T11:48:29.690Z,98139.55
2023-01-07T11:51:04.584Z,98138.69
2023-01-07T11:53:44.755Z,98142.17
2023-01-07T11:56:22.914Z,98142.67
2023-01-07T11:59:17.492Z,98135.39
2023-01-07T12:01:53.353Z,98138.63
2023-01-07T12:04:30.926Z,98140.52
2023-01-07T12:07:06.293Z,98135.44
2023-01-07T12:09:38.158Z,98138.95
2023-01-07T12:12:33.476Z,98146.52
2023-01-07T12:15:18.529Z,98144.63
2023-01-07T12:17:50.756Z,98144.94
2023-01-07T12:20:50.271Z,98137.95
2023-01-07T12:23:37.929Z,98137.42
2023-01-07T12:26:16.061Z,98142.05
2023-01-07T12:29:11.803Z,98140.41
2023-01-07T12:31:56.602Z,98139.66
2023-01-07T12:34:55.553Z,98134.83
2023-01-07T12:37:38.115Z,98137.81
2023-01-07T12:40:20.446Z,98132.44
2023-01-07T12:43:05.346Z,98131.38
2023-01-07T12:45:56.850Z,98128.70
2023-01-07T12:48:44.751Z,98129.52
2023-01-07T12:51:29.876Z,98134.64
2023-01-07T12:54:17.635Z,98129.56
2023-01-07T12:56:53.690Z,98125.56
2023-01-07T12:59:46.719Z,98127.42
2023-01-07T13:02:37.526Z,98135.49
2023-01-07T13:05:21.880Z,98136.08
2023-01-07T13:08:03.386Z,98136.34
2023-01-07T13:10:41.863Z,98132.84
2023-01-07T13:13:24.411Z,98132.84
2023-01-07T13:15:53.316Z,98133.14
2023-01-07T13:18:21.225Z,98126.95
2023-01-07T13:21:08.284Z,98127.72
2023-01-07T13:24:09.282Z,98123.39
2023-01-07T13:26:57.319Z,98123.09
2023-01-07T13:30:02.261Z,98121.42
2023-01-07T13:32:47.457Z,98124.57
2023-01-07T13:35:43.323Z,98120.23
2023-01-07T13:38:51.789Z,98125.30
2023-01-07T13:41:51.262Z,98121.80
2023-01-07T13:45:03.822Z,98129.04
2023-01-07T13:47:53.387Z,98126.09
2023-01-07T13:50:29.702Z,98131.48
2023-01-07T13:53:07.368Z,98133.12
2023-01-07T13:55:40.020Z,98140.39
2023-01-07T13:58:37.084Z,98132.09
2023-01-07T14:01:12.007Z,98138.00
2023-01-07T14:03:49.610Z,98141.00
2023-01-07T14:06:29.413Z,98140.46
2023-01-07T14:09:10.717Z,98145.05
2023-01-07T14:12:03.755Z,98142.41
2023-01-07T14:14:57.863Z,98147.28
2023-01-07T14:17:44.541Z,98132.79
2023-01-07T14:20:46.728Z,98137.38
2023-01-07T14:23:25.731Z,98138.47
2023-01-07T14:26:31.116Z,98144.70
2023-01-07T14:29:19.400Z,98138.52
2023-01-07T14:31:47.159Z,98138.02
2023-01-07T14:34:24.269Z,98138.56
2023-01-07T14:37:14.672Z,98128.61
2023-01-07T14:39:45.107Z,98128.66
2023-01-07T14:42:26.203Z,98131.89
2023-01-07T14:44:53.827Z,98139.97
2023-01-07T14:47:51.984Z,98151.30
2023-01-07T14:50:37.321Z,98147.09
2023-01-07T14:53:22.081Z,98152.19
2023-01-07T14:56:12.538Z,98147.06
2023-01-07T14:59:02.133Z,98153.81
2023-01-07T15:02:10.594Z,98146.03
2023-01-07T15:05:11.029Z,98147.34
2023-01-07T15:07:40.684Z,98136.81
2023-01-07T15:10:49.157Z,98140.55
2023-01-07T15:13:37.659Z,98139.95
2023-01-07T15:16:09.903Z,98143.11
2023-01-07T15:18:50.959Z,98144.45
2023-01-07T15:22:02.342Z,98146.05
2023-01-07T15:24:56.499Z,98146.30
2023-01-07T15:27:50.862Z,98143.90
2023-01-07T15:31:02.528Z,98144.45
2023-01-07T15:34:01.873Z,98149.03
2023-01-07T15:36:31.461Z,98153.87
2023-01-07T15:39:02.745Z,98148.78
2023-01-07T15:41:35.894Z,98154.20
2023-01-07T15:44:17.956Z,98154.75
2023-01-07T15:46:45.536Z,98147.77
2023-01-07T15:49:23.279Z,98158.02
2023-01-07T15:51:57.435Z,98156.17
2023-01-07T15:54:38.915Z,98156.20
2023-01-07T15:57:31.372Z,98157.30
2023-01-07T15:59:59.019Z,98154.08
2023-01-07T16:02:37.456Z,98148.19
2023-01-07T16:05:06.528Z,98151.42
2023-01-07T16:07:52.478Z,98153.30
2023-01-07T16:10:32.634Z,98150.63
2023-01-07T16:13:04.484Z,98150.33
2023-01-07T16:15:36.496Z,98149.56
2023-01-07T16:18:16.057Z,98146.33
2023-01-07T16:20:58.305Z,98146.59
2023-01-07T16:23:33.690Z,98151.45
2023-01-07T16:26:06.091Z,98143.36
2023-01-07T16:28:54.096Z,98146.30
2023-01-07T16:31:25.813Z,98155.45
2023-01-07T16:33:57.282Z,98146.00
2023-01-07T16:36:36.056Z,98142.19
2023-01-07T16:39:08.960Z,98145.12
2023-01-07T16:41:37.040Z,98146.69
2023-01-07T16:44:04.910Z,98131.59
2023-01-07T16:46:37.890Z,98129.91
2023-01-07T16:49:28.422Z,98125.86
2023-01-07T16:52:15.058Z,98124.22
2023-01-07T16:54:44.034Z,98126.37
2023-01-07T16:57:17.201Z,98122.89
2023-01-07T16:59:54.946Z,98123.47
2023-01-07T17:02:58.915Z,98123.73
2023-01-07T17:05:32.890Z,98121.08
2023-01-07T17:08:05.026Z,98129.41
2023-01-07T17:10:36.251Z,98125.67
2023-01-07T17:13:17.170Z,98130.80
2023-01-07T17:15:44.458Z,98129.20
2023-01-07T17:18:20.029Z,98123.06
2023-01-07T17:20:51.787Z,98117.19
2023-01-07T17:23:31.934Z,98119.08
2023-01-07T17:26:12.806Z,98121.27
2023-01-07T17:28:48.406Z,98125.04
2023-01-07T17:31:16.430Z,98124.53
2023-01-07T17:33:44.468Z,98122.62
2023-01-07T17:36:21.899Z,98118.62
2023-01-07T17:38:49.770Z,98129.08
2023-01-07T17:41:41.798Z,98115.94
2023-01-07T17:44:12.408Z,98114.34
2023-01-07T17:46:41.303Z,98114.88
2023-01-07T17:49:11.524Z,98121.60
2023-01-07T17:51:42.403Z,98130.17
2023-01-07T17:54:20.065Z,98117.53
2023-01-07T17:56:48.106Z,98118.04
2023-01-07T17:59:18.875Z,98114.29
2023-01-07T18:01:46.966Z,98114.54
2023-01-07T18:04:14.687Z,98113.16
2023-01-07T18:06:43.142Z,98105.59
2023-01-07T18:09:12.928Z,98116.55
2023-01-07T18:12:02.483Z,98115.75
2023-01-07T18:14:31.935Z,98113.81
2023-01-07T18:16:59.760Z,98111.92
2023-01-07T18:19:27.492Z,98108.39
2023-01-07T18:21:55.002Z,98099.52
2023-01-07T18:24:22.602Z,98095.23
2023-01-07T18:26:50.303Z,98106.55
2023-01-07T18:29:17.839Z,98104.70
2023-01-07T18:31:45.668Z,98109.27
2023-01-07T18:34:15.023Z,98104.99
2023-01-07T18:36:42.589Z,98105.55
2023-01-07T18:39:17.536Z,98107.19
2023-01-07T18:41:45.135Z,98119.58
2023-01-07T18:44:12.578Z,98113.16
2023-01-07T18:46:40.373Z,98112.90
2023-01-07T18:49:09.399Z,98107.82
2023-01-07T18:51:37.757Z,98106.19
2023-01-07T18:54:05.889Z,98103.54
2023-01-07T18:56:33.433Z,98107.29
2023-01-07T18:59:00.899Z,98108.13
2023-01-07T19:01:31.672Z,98106.78
2023-01-07T19:03:59.631Z,98105.19
2023-01-07T19:06:27.455Z,98101.19
2023-01-07T19:08:55.965Z,98102.28
2023-01-07T19:11:23.647Z,98100.94
2023-01-07T19:13:51.085Z,98095.81
2023-01-07T19:16:19.196Z,98093.67
2023-01-07T19:18:46.994Z,98091.78
2023-01-07T19:21:14.740Z,98091.48
2023-01-07T19:23:42.432Z,98095.48
2023-01-07T19:26:11.489Z,98087.16
2023-01-07T19:28:39.080Z,98079.34
2023-01-07T19:31:09.150Z,98089.25
2023-01-07T19:33:37.521Z,98088.96
2023-01-07T19:36:13.301Z,98091.35
2023-01-07T19:38:44.088Z,98096.17
2023-01-07T19:41:18.769Z,98094.00
2023-01-07T19:43:47.759Z,98088.61
2023-01-07T19:46:16.000Z,98091.56
2023-01-07T19:48:48.910Z,98088.11
2023-01-07T19:51:16.757Z,98087.83
2023-01-07T19:53:46.693Z,98085.98
2023-01-07T19:56:14.233Z,98079.30
2023-01-07T19:58:42.162Z,98084.69
2023-01-07T20:01:17.261Z,98086.06
2023-01-07T20:03:45.343Z,98091.70
2023-01-07T20:06:16.211Z,98083.94
2023-01-07T20:08:44.755Z,98082.34
2023-01-07T20:11:13.560Z,98083.97
2023-01-07T20:13:43.042Z,98085.61
2023-01-07T20:16:15.035Z,98077.59
2023-01-07T20:18:46.127Z,98079.48
2023-01-07T20:21:16.526Z,98074.68
2023-01-07T20:23:44.599Z,98082.74
2023-01-07T20:26:16.559Z,98082.48
2023-01-07T20:28:44.894Z,98081.98
2023-01-07T20:31:15.226Z,98086.03
2023-01-07T20:33:44.889Z,98083.89
2023-01-07T20:36:18.837Z,98079.06
2023-01-07T20:38:47.382Z,98076.38
2023-01-07T20:41:19.715Z,98076.12
2023-01-07T20:43:57.980Z,98070.20
2023-01-07T20:46:27.778Z,98075.01
2023-01-07T20:48:56.711Z,98075.01
2023-01-07T20:51:24.479Z,98073.37
2023-01-07T20:53:52.514Z,98073.63
2023-01-07T20:56:22.759Z,98072.25
2023-01-07T20:58:51.176Z,98067.67
2023-01-07T21:01:21.240Z,98069.78
2023-01-07T21:03:49.588Z,98077.84
2023-01-07T21:06:19.143Z,98076.75
2023-01-07T21:08:48.103Z,98082.13
2023-01-07T21:11:20.221Z,98079.15
2023-01-07T21:13:49.245Z,98076.46
2023-01-07T21:16:17.629Z,98075.12
2023-01-07T21:18:45.232Z,98071.63
2023-01-07T21:21:23.464Z,98074.06
2023-01-07T21:23:52.981Z,98068.44
2023-01-07T21:26:23.336Z,98063.06
2023-01-07T21:28:55.296Z,98057.73
2023-01-07T21:31:24.165Z,98054.23
2023-01-07T21:33:55.757Z,98062.30
2023-01-07T21:36:25.126Z,98058.56
2023-01-07T21:38:56.881Z,98054.54
2023-01-07T21:41:26.000Z,98053.23
2023-01-07T21:43:54.130Z,98055.11
2023-01-07T21:46:22.083Z,98055.92
2023-01-07T21:48:51.243Z,98061.86
2023-01-07T21:51:25.564Z,98053.01
2023-01-07T21:53:55.931Z,98055.44
2023-01-07T21:56:28.129Z,98060.30
2023-01-07T21:58:55.446Z,98059.23
2023-01-07T22:01:25.023Z,98046.36
2023-01-07T22:03:53.057Z,98054.41
2023-01-07T22:06:27.593Z,98047.16
2023-01-07T22:08:58.600Z,98046.07
2023-01-07T22:11:26.740Z,98045.27
2023-01-07T22:13:57.556Z,98044.98
2023-01-07T22:16:28.453Z,98043.89
2023-01-07T22:18:56.962Z,98040.38
2023-01-07T22:21:24.802Z,98034.17
2023-01-07T22:23:52.223Z,98033.08
2023-01-07T22:26:20.757Z,98030.31
2023-01-07T22:28:57.932Z,98024.90
2023-01-07T22:31:32.375Z,98032.12
2023-01-07T22:34:00.188Z,98031.31
2023-01-07T22:36:33.258Z,98029.97
2023-01-07T22:39:09.758Z,98026.48
2023-01-07T22:41:37.881Z,98026.70
2023-01-07T22:44:10.320Z,98020.28
2023-01-07T22:46:39.517Z,98025.40
2023-01-07T22:49:07.151Z,98023.27
2023-01-07T22:51:39.540Z,98019.23
2023-01-07T22:54:08.293Z,98010.66
2023-01-07T22:56:36.117Z,98005.84
2023-01-07T22:59:03.825Z,98015.25
2023-01-07T23:01:31.548Z,98012.85
2023-01-07T23:03:59.418Z,98006.69
2023-01-07T23:06:27.324Z,98003.20
2023-01-07T23:08:54.929Z,98014.49
2023-01-07T23:11:41.030Z,98003.79
2023-01-07T23:14:08.927Z,98005.42
2023-01-07T23:16:37.327Z,97996.56
2023-01-07T23:19:05.467Z,97994.72
2023-01-07T23:21:33.865Z,97998.75
2023-01-07T23:24:01.425Z,97996.35
2023-01-07T23:26:28.899Z,97993.95
2023-01-07T23:28:56.807Z,97993.16
2023-01-07T23:31:24.689Z,97991.02
2023-01-07T23:33:52.325Z,97987.53
2023-01-07T23:36:19.674Z,97980.24
2023-01-07T23:38:47.812Z,97979.44
2023-01-07T23:41:15.702Z,97974.57
2023-01-07T23:43:43.309Z,97979.36
2023-01-07T23:46:11.695Z,97974.23
2023-01-07T23:48:39.530Z,97976.62
2023-01-07T23:51:13.963Z,97972.00
2023-01-07T23:53:42.143Z,97968.73
2023-01-07T23:56:09.717Z,97973.79
2023-01-07T23:58:38.274Z,97967.86
